Etusivu
METAR-TAF:

METAR-TAF

Lentoasemat :

Tampere, Suomi

Tampere-Pirkkalan lentoasema

Leveyspiiri: 61-25N, Pituuspiiri: 023-35E, korkeus merenpinnasta: 112 m

Tämänhetkinen sää

Tämä raportti tehtiin 15 minuuttia sitten, kello 04.50 UTC
Tuuli 5 kn lännestä, vaihdellen lounaan ja lännen/luoteen välillä
Lämpötila 9°C
Kosteus 81%
Ilmanpaine 1009 hPa
Näkyvyys 10 km tai enemmän
ei pilviä alle 1500 m:ssä eikä cumulonimbus-pilviä

METAR: EFTP 230450Z AUTO 26005KT 220V290 CAVOK 09/06 Q1009

Aika: 08:05 (05:05 UTC)

Sääennuste

Tämä raportti tehtiin 2 tuntia ja 35 minuuttia sitten, kello 02.30 UTC
Ennuste voimassa 23. päivästä klo 03 UTC - 24. päivään klo 03 UTC
Tuuli 5 kn lännestä/lounaasta
Näkyvyys 10 km tai enemmän
ei pilviä alle 1500 m:ssä eikä cumulonimbus-pilviä
Tulossa
23. päivästä klo 09 UTC - 23. päivään klo 11 UTC
Tuuli 10 kn pohjoisesta

TAF: EFTP 230230Z 2303/2403 25005KT CAVOK BECMG 2309/2311 01010KT

Säähavainnot ja -ennusteet yli 4000 lentoasemalta (METAR- ja TAF-raportit).

Käytössä olevat sääasemat on merkitty karttaan keltaisilla ja punaisilla pisteillä.

Aseta hiiri pisteen päälle nähdäksesi sääaseman nimen.

Klikkaa sitten nähdäksesi säähavainnot ja -ennusteet.

Kartan vaihtaminen: klikkaa mustalla rastilla varustettuja vihreitä pisteitä, niin voit zoomata sisään; viivalla varustettua vihreää pistettä, niin voit zoomata ulos tai vihreitä nuolia, niin pääset viereisille kartoille.


METAR-TAF: